sensor_id;sensor_type;location;lat;lon;timestamp;temperature;humidity
6518;DHT22;3292;48.944;9.240;2022-12-07T00:02:02;3.40;99.90
6518;DHT22;3292;48.944;9.240;2022-12-07T00:04:31;3.30;99.90
6518;DHT22;3292;48.944;9.240;2022-12-07T00:06:57;3.30;99.90
6518;DHT22;3292;48.944;9.240;2022-12-07T00:09:24;3.30;99.90
6518;DHT22;3292;48.944;9.240;2022-12-07T00:11:51;3.30;99.90
6518;DHT22;3292;48.944;9.240;2022-12-07T00:14:18;3.30;99.90
6518;DHT22;3292;48.944;9.240;2022-12-07T00:16:45;3.30;99.90
6518;DHT22;3292;48.944;9.240;2022-12-07T00:19:20;3.30;99.90
6518;DHT22;3292;48.944;9.240;2022-12-07T00:21:53;3.30;99.90
6518;DHT22;3292;48.944;9.240;2022-12-07T00:24:24;3.30;99.90
6518;DHT22;3292;48.944;9.240;2022-12-07T00:26:52;3.30;99.90
6518;DHT22;3292;48.944;9.240;2022-12-07T00:29:20;3.30;99.90
6518;DHT22;3292;48.944;9.240;2022-12-07T00:31:47;3.30;99.90
6518;DHT22;3292;48.944;9.240;2022-12-07T00:34:17;3.20;99.90
6518;DHT22;3292;48.944;9.240;2022-12-07T00:36:44;3.20;99.90
6518;DHT22;3292;48.944;9.240;2022-12-07T00:39:13;3.20;99.90
6518;DHT22;3292;48.944;9.240;2022-12-07T00:41:40;3.20;99.90
6518;DHT22;3292;48.944;9.240;2022-12-07T00:44:07;3.20;99.90
6518;DHT22;3292;48.944;9.240;2022-12-07T00:46:34;3.20;99.90
6518;DHT22;3292;48.944;9.240;2022-12-07T00:49:00;3.20;99.90
6518;DHT22;3292;48.944;9.240;2022-12-07T00:51:27;3.20;99.90
6518;DHT22;3292;48.944;9.240;2022-12-07T00:53:54;3.20;99.90
6518;DHT22;3292;48.944;9.240;2022-12-07T00:56:24;3.20;99.90
6518;DHT22;3292;48.944;9.240;2022-12-07T00:58:52;3.20;99.90
6518;DHT22;3292;48.944;9.240;2022-12-07T01:01:21;3.20;99.90
6518;DHT22;3292;48.944;9.240;2022-12-07T01:03:48;3.20;99.90
6518;DHT22;3292;48.944;9.240;2022-12-07T01:06:16;3.20;99.90
6518;DHT22;3292;48.944;9.240;2022-12-07T01:08:43;3.20;99.90
6518;DHT22;3292;48.944;9.240;2022-12-07T01:11:14;3.20;99.90
6518;DHT22;3292;48.944;9.240;2022-12-07T01:13:43;3.20;99.90
6518;DHT22;3292;48.944;9.240;2022-12-07T01:16:11;3.20;99.90
6518;DHT22;3292;48.944;9.240;2022-12-07T01:18:39;3.20;99.90
6518;DHT22;3292;48.944;9.240;2022-12-07T01:21:08;3.20;99.90
6518;DHT22;3292;48.944;9.240;2022-12-07T01:23:36;3.20;99.90
6518;DHT22;3292;48.944;9.240;2022-12-07T01:26:05;3.20;99.90
6518;DHT22;3292;48.944;9.240;2022-12-07T01:28:33;3.20;99.90
6518;DHT22;3292;48.944;9.240;2022-12-07T01:31:03;3.20;99.90
6518;DHT22;3292;48.944;9.240;2022-12-07T01:33:31;3.20;99.90
6518;DHT22;3292;48.944;9.240;2022-12-07T01:36:02;3.20;99.90
6518;DHT22;3292;48.944;9.240;2022-12-07T01:38:30;3.20;99.90
6518;DHT22;3292;48.944;9.240;2022-12-07T01:40:57;3.20;99.90
6518;DHT22;3292;48.944;9.240;2022-12-07T01:43:26;3.20;99.90
6518;DHT22;3292;48.944;9.240;2022-12-07T01:45:53;3.20;99.90
6518;DHT22;3292;48.944;9.240;2022-12-07T01:48:26;3.20;99.90
6518;DHT22;3292;48.944;9.240;2022-12-07T01:50:56;3.10;99.90
6518;DHT22;3292;48.944;9.240;2022-12-07T01:53:28;3.10;99.90
6518;DHT22;3292;48.944;9.240;2022-12-07T01:55:56;3.10;99.90
6518;DHT22;3292;48.944;9.240;2022-12-07T01:58:25;3.10;99.90
6518;DHT22;3292;48.944;9.240;2022-12-07T02:00:52;3.10;99.90
6518;DHT22;3292;48.944;9.240;2022-12-07T02:03:25;3.10;99.90
6518;DHT22;3292;48.944;9.240;2022-12-07T02:05:54;3.00;99.90
6518;DHT22;3292;48.944;9.240;2022-12-07T02:08:21;3.00;99.90
6518;DHT22;3292;48.944;9.240;2022-12-07T02:10:48;3.00;99.90
6518;DHT22;3292;48.944;9.240;2022-12-07T02:13:18;3.00;99.90
6518;DHT22;3292;48.944;9.240;2022-12-07T02:15:55;3.00;99.90
6518;DHT22;3292;48.944;9.240;2022-12-07T02:18:37;3.00;99.90
6518;DHT22;3292;48.944;9.240;2022-12-07T02:21:11;3.00;99.90
6518;DHT22;3292;48.944;9.240;2022-12-07T02:23:46;3.00;99.90
6518;DHT22;3292;48.944;9.240;2022-12-07T02:29:15;3.00;99.90
6518;DHT22;3292;48.944;9.240;2022-12-07T02:31:48;3.00;99.90
6518;DHT22;3292;48.944;9.240;2022-12-07T02:34:22;3.00;99.90
6518;DHT22;3292;48.944;9.240;2022-12-07T02:36:57;2.90;99.90
6518;DHT22;3292;48.944;9.240;2022-12-07T02:39:31;2.90;99.90
6518;DHT22;3292;48.944;9.240;2022-12-07T02:42:04;2.90;99.90
6518;DHT22;3292;48.944;9.240;2022-12-07T02:44:34;2.90;99.90
6518;DHT22;3292;48.944;9.240;2022-12-07T02:47:03;2.90;99.90
6518;DHT22;3292;48.944;9.240;2022-12-07T02:49:31;2.90;99.90
6518;DHT22;3292;48.944;9.240;2022-12-07T02:51:58;2.90;99.90
6518;DHT22;3292;48.944;9.240;2022-12-07T02:54:25;2.90;99.90
6518;DHT22;3292;48.944;9.240;2022-12-07T02:56:55;2.80;99.90
6518;DHT22;3292;48.944;9.240;2022-12-07T02:59:32;2.80;99.90
6518;DHT22;3292;48.944;9.240;2022-12-07T03:02:13;2.80;99.90
6518;DHT22;3292;48.944;9.240;2022-12-07T03:04:46;2.80;99.90
6518;DHT22;3292;48.944;9.240;2022-12-07T03:07:22;2.80;99.90
6518;DHT22;3292;48.944;9.240;2022-12-07T03:09:57;2.80;99.90
6518;DHT22;3292;48.944;9.240;2022-12-07T03:12:29;2.80;99.90
6518;DHT22;3292;48.944;9.240;2022-12-07T03:15:02;2.80;99.90
6518;DHT22;3292;48.944;9.240;2022-12-07T03:17:33;2.80;99.90
6518;DHT22;3292;48.944;9.240;2022-12-07T03:20:04;2.80;99.90
6518;DHT22;3292;48.944;9.240;2022-12-07T03:22:35;2.80;99.90
6518;DHT22;3292;48.944;9.240;2022-12-07T03:25:07;2.70;99.90
6518;DHT22;3292;48.944;9.240;2022-12-07T03:27:38;2.70;99.90
6518;DHT22;3292;48.944;9.240;2022-12-07T03:30:09;2.70;99.90
6518;DHT22;3292;48.944;9.240;2022-12-07T03:32:42;2.70;99.90
6518;DHT22;3292;48.944;9.240;2022-12-07T03:35:14;2.60;99.90
6518;DHT22;3292;48.944;9.240;2022-12-07T03:37:46;2.60;99.90
6518;DHT22;3292;48.944;9.240;2022-12-07T03:40:17;2.60;99.90
6518;DHT22;3292;48.944;9.240;2022-12-07T03:42:46;2.50;99.90
6518;DHT22;3292;48.944;9.240;2022-12-07T03:45:14;2.50;99.90
6518;DHT22;3292;48.944;9.240;2022-12-07T03:47:47;2.50;99.90
6518;DHT22;3292;48.944;9.240;2022-12-07T03:50:21;2.50;99.90
6518;DHT22;3292;48.944;9.240;2022-12-07T03:52:54;2.50;99.90
6518;DHT22;3292;48.944;9.240;2022-12-07T03:55:26;2.60;99.90
6518;DHT22;3292;48.944;9.240;2022-12-07T03:57:57;2.60;99.90
6518;DHT22;3292;48.944;9.240;2022-12-07T04:00:25;2.60;99.90
6518;DHT22;3292;48.944;9.240;2022-12-07T04:02:54;2.60;99.90
6518;DHT22;3292;48.944;9.240;2022-12-07T04:05:21;2.70;99.90
6518;DHT22;3292;48.944;9.240;2022-12-07T04:07:48;2.70;99.90
6518;DHT22;3292;48.944;9.240;2022-12-07T04:10:15;2.70;99.90
6518;DHT22;3292;48.944;9.240;2022-12-07T04:12:42;2.70;99.90
6518;DHT22;3292;48.944;9.240;2022-12-07T04:15:10;2.70;99.90
6518;DHT22;3292;48.944;9.240;2022-12-07T04:17:37;2.70;99.90
6518;DHT22;3292;48.944;9.240;2022-12-07T04:20:06;2.70;99.90
6518;DHT22;3292;48.944;9.240;2022-12-07T04:22:33;2.70;99.90
6518;DHT22;3292;48.944;9.240;2022-12-07T04:25:00;2.70;99.90
6518;DHT22;3292;48.944;9.240;2022-12-07T04:27:27;2.70;99.90
6518;DHT22;3292;48.944;9.240;2022-12-07T04:29:54;2.70;99.90
6518;DHT22;3292;48.944;9.240;2022-12-07T04:32:21;2.70;99.90
6518;DHT22;3292;48.944;9.240;2022-12-07T04:34:48;2.70;99.90
6518;DHT22;3292;48.944;9.240;2022-12-07T04:37:16;2.60;99.90
6518;DHT22;3292;48.944;9.240;2022-12-07T04:39:43;2.60;99.90
6518;DHT22;3292;48.944;9.240;2022-12-07T04:42:11;2.60;99.90
6518;DHT22;3292;48.944;9.240;2022-12-07T04:44:39;2.60;99.90
6518;DHT22;3292;48.944;9.240;2022-12-07T04:47:05;2.60;99.90
6518;DHT22;3292;48.944;9.240;2022-12-07T04:49:33;2.60;99.90
6518;DHT22;3292;48.944;9.240;2022-12-07T04:51:59;2.60;99.90
6518;DHT22;3292;48.944;9.240;2022-12-07T04:54:28;2.60;99.90
6518;DHT22;3292;48.944;9.240;2022-12-07T04:56:54;2.60;99.90
6518;DHT22;3292;48.944;9.240;2022-12-07T04:59:21;2.50;99.90
6518;DHT22;3292;48.944;9.240;2022-12-07T05:01:48;2.50;99.90
6518;DHT22;3292;48.944;9.240;2022-12-07T05:04:15;2.50;99.90
6518;DHT22;3292;48.944;9.240;2022-12-07T05:06:43;2.50;99.90
6518;DHT22;3292;48.944;9.240;2022-12-07T05:09:11;2.50;99.90
6518;DHT22;3292;48.944;9.240;2022-12-07T05:11:39;2.50;99.90
6518;DHT22;3292;48.944;9.240;2022-12-07T05:14:09;2.50;99.90
6518;DHT22;3292;48.944;9.240;2022-12-07T05:16:37;2.40;99.90
6518;DHT22;3292;48.944;9.240;2022-12-07T05:19:04;2.40;99.90
6518;DHT22;3292;48.944;9.240;2022-12-07T05:21:31;2.40;99.90
6518;DHT22;3292;48.944;9.240;2022-12-07T05:23:58;2.40;99.90
6518;DHT22;3292;48.944;9.240;2022-12-07T05:26:25;2.40;99.90
6518;DHT22;3292;48.944;9.240;2022-12-07T05:28:54;2.40;99.90
6518;DHT22;3292;48.944;9.240;2022-12-07T05:31:22;2.40;99.90
6518;DHT22;3292;48.944;9.240;2022-12-07T05:33:49;2.40;99.90
6518;DHT22;3292;48.944;9.240;2022-12-07T05:36:16;2.40;99.90
6518;DHT22;3292;48.944;9.240;2022-12-07T05:38:43;2.40;99.90
6518;DHT22;3292;48.944;9.240;2022-12-07T05:41:13;2.40;99.90
6518;DHT22;3292;48.944;9.240;2022-12-07T05:43:56;2.40;99.90
6518;DHT22;3292;48.944;9.240;2022-12-07T05:46:22;2.40;99.90
6518;DHT22;3292;48.944;9.240;2022-12-07T05:48:49;2.40;99.90
6518;DHT22;3292;48.944;9.240;2022-12-07T05:51:16;2.40;99.90
6518;DHT22;3292;48.944;9.240;2022-12-07T05:53:44;2.40;99.90
6518;DHT22;3292;48.944;9.240;2022-12-07T05:56:11;2.40;99.90
6518;DHT22;3292;48.944;9.240;2022-12-07T05:58:37;2.40;99.90
6518;DHT22;3292;48.944;9.240;2022-12-07T06:01:37;2.40;99.90
6518;DHT22;3292;48.944;9.240;2022-12-07T06:04:07;2.40;99.90
6518;DHT22;3292;48.944;9.240;2022-12-07T06:06:34;2.40;99.90
6518;DHT22;3292;48.944;9.240;2022-12-07T06:09:01;2.40;99.90
6518;DHT22;3292;48.944;9.240;2022-12-07T06:11:28;2.40;99.90
6518;DHT22;3292;48.944;9.240;2022-12-07T06:14:12;2.50;99.90
6518;DHT22;3292;48.944;9.240;2022-12-07T06:16:40;2.50;99.90
6518;DHT22;3292;48.944;9.240;2022-12-07T06:19:07;2.50;99.90
6518;DHT22;3292;48.944;9.240;2022-12-07T06:21:36;2.50;99.90
6518;DHT22;3292;48.944;9.240;2022-12-07T06:24:09;2.50;99.90
6518;DHT22;3292;48.944;9.240;2022-12-07T06:26:43;2.40;99.90
6518;DHT22;3292;48.944;9.240;2022-12-07T06:29:22;2.40;99.90
6518;DHT22;3292;48.944;9.240;2022-12-07T06:31:54;2.50;99.90
6518;DHT22;3292;48.944;9.240;2022-12-07T06:34:34;2.50;99.90
6518;DHT22;3292;48.944;9.240;2022-12-07T06:37:07;2.50;99.90
6518;DHT22;3292;48.944;9.240;2022-12-07T06:39:42;2.40;99.90
6518;DHT22;3292;48.944;9.240;2022-12-07T06:42:13;2.40;99.90
6518;DHT22;3292;48.944;9.240;2022-12-07T06:44:44;2.40;99.90
6518;DHT22;3292;48.944;9.240;2022-12-07T06:47:15;2.40;99.90
6518;DHT22;3292;48.944;9.240;2022-12-07T06:49:47;2.40;99.90
6518;DHT22;3292;48.944;9.240;2022-12-07T06:52:17;2.40;99.90
6518;DHT22;3292;48.944;9.240;2022-12-07T06:54:48;2.40;99.90
6518;DHT22;3292;48.944;9.240;2022-12-07T06:57:18;2.40;99.90
6518;DHT22;3292;48.944;9.240;2022-12-07T06:59:50;2.40;99.90
6518;DHT22;3292;48.944;9.240;2022-12-07T07:02:22;2.40;99.90
6518;DHT22;3292;48.944;9.240;2022-12-07T07:04:52;2.40;99.90
6518;DHT22;3292;48.944;9.240;2022-12-07T07:07:23;2.40;99.90
6518;DHT22;3292;48.944;9.240;2022-12-07T07:09:53;2.40;99.90
6518;DHT22;3292;48.944;9.240;2022-12-07T07:12:23;2.40;99.90
6518;DHT22;3292;48.944;9.240;2022-12-07T07:14:56;2.40;99.90
6518;DHT22;3292;48.944;9.240;2022-12-07T07:17:30;2.40;99.90
6518;DHT22;3292;48.944;9.240;2022-12-07T07:20:00;2.50;99.90
6518;DHT22;3292;48.944;9.240;2022-12-07T07:22:30;2.50;99.90
6518;DHT22;3292;48.944;9.240;2022-12-07T07:24:58;2.50;99.90
6518;DHT22;3292;48.944;9.240;2022-12-07T07:27:28;2.50;99.90
6518;DHT22;3292;48.944;9.240;2022-12-07T07:29:56;2.50;99.90
6518;DHT22;3292;48.944;9.240;2022-12-07T07:32:28;2.50;99.90
6518;DHT22;3292;48.944;9.240;2022-12-07T07:34:59;2.50;99.90
6518;DHT22;3292;48.944;9.240;2022-12-07T07:37:30;2.50;99.90
6518;DHT22;3292;48.944;9.240;2022-12-07T07:39:59;2.50;99.90
6518;DHT22;3292;48.944;9.240;2022-12-07T07:42:30;2.60;99.90
6518;DHT22;3292;48.944;9.240;2022-12-07T07:45:01;2.60;99.90
6518;DHT22;3292;48.944;9.240;2022-12-07T07:47:31;2.60;99.90
6518;DHT22;3292;48.944;9.240;2022-12-07T07:49:58;2.60;99.90
6518;DHT22;3292;48.944;9.240;2022-12-07T07:52:25;2.60;99.90
6518;DHT22;3292;48.944;9.240;2022-12-07T07:54:55;2.60;99.90
6518;DHT22;3292;48.944;9.240;2022-12-07T07:57:25;2.70;99.90
6518;DHT22;3292;48.944;9.240;2022-12-07T07:59:55;2.70;99.90
6518;DHT22;3292;48.944;9.240;2022-12-07T08:02:25;2.70;99.90
6518;DHT22;3292;48.944;9.240;2022-12-07T08:04:58;2.70;99.90
6518;DHT22;3292;48.944;9.240;2022-12-07T08:07:28;2.70;99.90
6518;DHT22;3292;48.944;9.240;2022-12-07T08:09:57;2.80;99.90
6518;DHT22;3292;48.944;9.240;2022-12-07T08:12:28;2.80;99.90
6518;DHT22;3292;48.944;9.240;2022-12-07T08:14:57;2.90;99.90
6518;DHT22;3292;48.944;9.240;2022-12-07T08:17:25;2.90;99.90
6518;DHT22;3292;48.944;9.240;2022-12-07T08:19:53;2.90;99.90
6518;DHT22;3292;48.944;9.240;2022-12-07T08:22:23;3.00;99.90
6518;DHT22;3292;48.944;9.240;2022-12-07T08:24:51;3.00;99.90
6518;DHT22;3292;48.944;9.240;2022-12-07T08:27:20;3.00;99.90
6518;DHT22;3292;48.944;9.240;2022-12-07T08:29:53;3.10;99.90
6518;DHT22;3292;48.944;9.240;2022-12-07T08:32:21;3.10;99.90
6518;DHT22;3292;48.944;9.240;2022-12-07T08:34:53;3.10;99.90
6518;DHT22;3292;48.944;9.240;2022-12-07T08:37:24;3.20;99.90
6518;DHT22;3292;48.944;9.240;2022-12-07T08:39:53;3.20;99.90
6518;DHT22;3292;48.944;9.240;2022-12-07T08:42:22;3.30;99.90
6518;DHT22;3292;48.944;9.240;2022-12-07T08:44:56;3.30;99.90
6518;DHT22;3292;48.944;9.240;2022-12-07T08:47:26;3.40;99.90
6518;DHT22;3292;48.944;9.240;2022-12-07T08:49:55;3.40;99.90
6518;DHT22;3292;48.944;9.240;2022-12-07T08:52:26;3.40;99.90
6518;DHT22;3292;48.944;9.240;2022-12-07T08:54:54;3.50;99.90
6518;DHT22;3292;48.944;9.240;2022-12-07T08:57:23;3.50;99.90
6518;DHT22;3292;48.944;9.240;2022-12-07T08:59:51;3.50;99.90
6518;DHT22;3292;48.944;9.240;2022-12-07T09:02:27;3.60;99.90
6518;DHT22;3292;48.944;9.240;2022-12-07T09:04:56;3.60;99.90
6518;DHT22;3292;48.944;9.240;2022-12-07T09:07:27;3.60;99.90
6518;DHT22;3292;48.944;9.240;2022-12-07T09:09:56;3.70;99.90
6518;DHT22;3292;48.944;9.240;2022-12-07T09:12:25;3.60;99.90
6518;DHT22;3292;48.944;9.240;2022-12-07T09:14:54;3.70;99.90
6518;DHT22;3292;48.944;9.240;2022-12-07T09:17:23;3.70;99.90
6518;DHT22;3292;48.944;9.240;2022-12-07T09:19:52;3.70;99.90
6518;DHT22;3292;48.944;9.240;2022-12-07T09:22:22;3.80;99.90
6518;DHT22;3292;48.944;9.240;2022-12-07T09:24:52;3.80;99.90
6518;DHT22;3292;48.944;9.240;2022-12-07T09:27:23;3.80;99.90
6518;DHT22;3292;48.944;9.240;2022-12-07T09:29:53;3.80;99.90
6518;DHT22;3292;48.944;9.240;2022-12-07T09:32:22;3.80;99.90
6518;DHT22;3292;48.944;9.240;2022-12-07T09:34:51;3.90;99.90
6518;DHT22;3292;48.944;9.240;2022-12-07T09:37:20;3.90;99.90
6518;DHT22;3292;48.944;9.240;2022-12-07T09:39:49;3.90;99.90
6518;DHT22;3292;48.944;9.240;2022-12-07T09:42:28;3.90;99.90
6518;DHT22;3292;48.944;9.240;2022-12-07T09:44:59;3.90;99.90
6518;DHT22;3292;48.944;9.240;2022-12-07T09:47:35;3.90;99.90
6518;DHT22;3292;48.944;9.240;2022-12-07T09:50:14;4.00;99.90
6518;DHT22;3292;48.944;9.240;2022-12-07T09:52:44;4.00;99.90
6518;DHT22;3292;48.944;9.240;2022-12-07T09:55:22;4.00;99.90
6518;DHT22;3292;48.944;9.240;2022-12-07T09:57:54;3.90;99.90
6518;DHT22;3292;48.944;9.240;2022-12-07T10:00:25;3.90;99.90
6518;DHT22;3292;48.944;9.240;2022-12-07T10:02:56;3.90;99.90
6518;DHT22;3292;48.944;9.240;2022-12-07T10:05:28;3.90;99.90
6518;DHT22;3292;48.944;9.240;2022-12-07T10:07:58;3.80;99.90
6518;DHT22;3292;48.944;9.240;2022-12-07T10:10:30;3.80;99.90
6518;DHT22;3292;48.944;9.240;2022-12-07T10:13:03;3.80;99.90
6518;DHT22;3292;48.944;9.240;2022-12-07T10:15:51;3.80;99.90
6518;DHT22;3292;48.944;9.240;2022-12-07T10:18:29;3.80;99.90
6518;DHT22;3292;48.944;9.240;2022-12-07T10:21:09;3.90;99.90
6518;DHT22;3292;48.944;9.240;2022-12-07T10:23:41;3.90;99.90
6518;DHT22;3292;48.944;9.240;2022-12-07T10:26:21;3.90;99.90
6518;DHT22;3292;48.944;9.240;2022-12-07T10:29:00;3.80;99.90
6518;DHT22;3292;48.944;9.240;2022-12-07T10:31:32;3.90;99.90
6518;DHT22;3292;48.944;9.240;2022-12-07T10:34:20;3.90;99.90
6518;DHT22;3292;48.944;9.240;2022-12-07T10:37:06;4.00;99.90
6518;DHT22;3292;48.944;9.240;2022-12-07T10:39:43;4.00;99.90
6518;DHT22;3292;48.944;9.240;2022-12-07T10:42:19;4.10;99.90
6518;DHT22;3292;48.944;9.240;2022-12-07T10:45:08;4.10;99.90
6518;DHT22;3292;48.944;9.240;2022-12-07T10:47:41;4.20;99.90
6518;DHT22;3292;48.944;9.240;2022-12-07T10:50:29;4.20;99.90
6518;DHT22;3292;48.944;9.240;2022-12-07T10:53:20;4.20;99.90
6518;DHT22;3292;48.944;9.240;2022-12-07T10:56:01;4.20;99.90
6518;DHT22;3292;48.944;9.240;2022-12-07T10:58:47;4.20;99.90
6518;DHT22;3292;48.944;9.240;2022-12-07T11:01:28;4.20;99.90
6518;DHT22;3292;48.944;9.240;2022-12-07T11:04:26;4.20;99.90
6518;DHT22;3292;48.944;9.240;2022-12-07T11:07:02;4.30;99.90
6518;DHT22;3292;48.944;9.240;2022-12-07T11:09:55;4.30;99.90
6518;DHT22;3292;48.944;9.240;2022-12-07T11:12:37;4.30;99.90
6518;DHT22;3292;48.944;9.240;2022-12-07T11:15:15;4.40;99.90
6518;DHT22;3292;48.944;9.240;2022-12-07T11:17:53;4.50;99.90
6518;DHT22;3292;48.944;9.240;2022-12-07T11:20:38;4.60;99.90
6518;DHT22;3292;48.944;9.240;2022-12-07T11:23:16;4.70;99.90
6518;DHT22;3292;48.944;9.240;2022-12-07T11:25:53;4.70;99.90
6518;DHT22;3292;48.944;9.240;2022-12-07T11:28:33;4.70;99.90
6518;DHT22;3292;48.944;9.240;2022-12-07T11:31:14;4.60;99.90
6518;DHT22;3292;48.944;9.240;2022-12-07T11:33:47;4.60;99.90
6518;DHT22;3292;48.944;9.240;2022-12-07T11:36:31;4.60;99.90
6518;DHT22;3292;48.944;9.240;2022-12-07T11:39:07;4.50;99.90
6518;DHT22;3292;48.944;9.240;2022-12-07T11:41:40;4.60;99.90
6518;DHT22;3292;48.944;9.240;2022-12-07T11:44:20;4.60;99.90
6518;DHT22;3292;48.944;9.240;2022-12-07T11:46:57;4.60;99.90
6518;DHT22;3292;48.944;9.240;2022-12-07T11:49:43;4.60;99.90
6518;DHT22;3292;48.944;9.240;2022-12-07T11:52:20;4.60;99.90
6518;DHT22;3292;48.944;9.240;2022-12-07T11:54:52;4.60;99.90
6518;DHT22;3292;48.944;9.240;2022-12-07T11:57:28;4.50;99.90
6518;DHT22;3292;48.944;9.240;2022-12-07T12:00:06;4.50;99.90
6518;DHT22;3292;48.944;9.240;2022-12-07T12:02:46;4.40;99.90
6518;DHT22;3292;48.944;9.240;2022-12-07T12:05:20;4.40;99.90
6518;DHT22;3292;48.944;9.240;2022-12-07T12:07:53;4.40;99.90
6518;DHT22;3292;48.944;9.240;2022-12-07T12:10:33;4.40;99.90
6518;DHT22;3292;48.944;9.240;2022-12-07T12:13:28;4.40;99.90
6518;DHT22;3292;48.944;9.240;2022-12-07T12:16:13;4.40;99.90
6518;DHT22;3292;48.944;9.240;2022-12-07T12:18:59;4.40;99.90
6518;DHT22;3292;48.944;9.240;2022-12-07T12:21:33;4.40;99.90
6518;DHT22;3292;48.944;9.240;2022-12-07T12:24:04;4.40;99.90
6518;DHT22;3292;48.944;9.240;2022-12-07T12:26:37;4.40;99.90
6518;DHT22;3292;48.944;9.240;2022-12-07T12:29:18;4.40;99.90
6518;DHT22;3292;48.944;9.240;2022-12-07T12:32:17;4.40;99.90
6518;DHT22;3292;48.944;9.240;2022-12-07T12:35:02;4.40;99.90
6518;DHT22;3292;48.944;9.240;2022-12-07T12:37:43;4.40;99.90
6518;DHT22;3292;48.944;9.240;2022-12-07T12:40:42;4.40;99.90
6518;DHT22;3292;48.944;9.240;2022-12-07T12:46:48;4.40;99.90
6518;DHT22;3292;48.944;9.240;2022-12-07T12:49:35;4.40;99.90
6518;DHT22;3292;48.944;9.240;2022-12-07T12:55:20;4.30;99.90
6518;DHT22;3292;48.944;9.240;2022-12-07T13:03:55;4.30;99.90
6518;DHT22;3292;48.944;9.240;2022-12-07T13:06:35;4.30;99.90
6518;DHT22;3292;48.944;9.240;2022-12-07T13:09:18;4.30;99.90
6518;DHT22;3292;48.944;9.240;2022-12-07T13:11:49;4.30;99.90
6518;DHT22;3292;48.944;9.240;2022-12-07T13:14:38;4.30;99.90
6518;DHT22;3292;48.944;9.240;2022-12-07T13:17:08;4.20;99.90
6518;DHT22;3292;48.944;9.240;2022-12-07T13:19:59;4.30;99.90
6518;DHT22;3292;48.944;9.240;2022-12-07T13:22:46;4.30;99.90
6518;DHT22;3292;48.944;9.240;2022-12-07T13:25:21;4.30;99.90
6518;DHT22;3292;48.944;9.240;2022-12-07T13:27:55;4.30;99.90
6518;DHT22;3292;48.944;9.240;2022-12-07T13:30:23;4.30;99.90
6518;DHT22;3292;48.944;9.240;2022-12-07T13:32:53;4.30;99.90
6518;DHT22;3292;48.944;9.240;2022-12-07T13:35:41;4.30;99.90
6518;DHT22;3292;48.944;9.240;2022-12-07T13:38:22;4.30;99.90
6518;DHT22;3292;48.944;9.240;2022-12-07T13:41:01;4.30;99.90
6518;DHT22;3292;48.944;9.240;2022-12-07T13:43:29;4.30;99.90
6518;DHT22;3292;48.944;9.240;2022-12-07T13:45:57;4.40;99.90
6518;DHT22;3292;48.944;9.240;2022-12-07T13:48:30;4.40;99.90
6518;DHT22;3292;48.944;9.240;2022-12-07T13:50:59;4.40;99.90
6518;DHT22;3292;48.944;9.240;2022-12-07T13:53:26;4.40;99.90
6518;DHT22;3292;48.944;9.240;2022-12-07T13:55:56;4.40;99.90
6518;DHT22;3292;48.944;9.240;2022-12-07T13:58:23;4.40;99.90
6518;DHT22;3292;48.944;9.240;2022-12-07T14:00:52;4.40;99.90
6518;DHT22;3292;48.944;9.240;2022-12-07T14:03:28;4.30;99.90
6518;DHT22;3292;48.944;9.240;2022-12-07T14:06:23;4.30;99.90
6518;DHT22;3292;48.944;9.240;2022-12-07T14:09:07;4.30;99.90
6518;DHT22;3292;48.944;9.240;2022-12-07T14:11:34;4.30;99.90
6518;DHT22;3292;48.944;9.240;2022-12-07T14:14:02;4.30;99.90
6518;DHT22;3292;48.944;9.240;2022-12-07T14:16:33;4.30;99.90
6518;DHT22;3292;48.944;9.240;2022-12-07T14:19:02;4.30;99.90
6518;DHT22;3292;48.944;9.240;2022-12-07T14:21:31;4.30;99.90
6518;DHT22;3292;48.944;9.240;2022-12-07T14:24:15;4.30;99.90
6518;DHT22;3292;48.944;9.240;2022-12-07T14:26:43;4.30;99.90
6518;DHT22;3292;48.944;9.240;2022-12-07T14:29:21;4.30;99.90
6518;DHT22;3292;48.944;9.240;2022-12-07T14:31:53;4.20;99.90
6518;DHT22;3292;48.944;9.240;2022-12-07T14:34:21;4.20;99.90
6518;DHT22;3292;48.944;9.240;2022-12-07T14:36:48;4.20;99.90
6518;DHT22;3292;48.944;9.240;2022-12-07T14:39:14;4.20;99.90
6518;DHT22;3292;48.944;9.240;2022-12-07T14:41:41;4.20;99.90
6518;DHT22;3292;48.944;9.240;2022-12-07T14:44:18;4.10;99.90
6518;DHT22;3292;48.944;9.240;2022-12-07T14:46:48;4.10;99.90
6518;DHT22;3292;48.944;9.240;2022-12-07T14:49:19;4.10;99.90
6518;DHT22;3292;48.944;9.240;2022-12-07T14:51:48;4.10;99.90
6518;DHT22;3292;48.944;9.240;2022-12-07T14:54:19;4.00;99.90
6518;DHT22;3292;48.944;9.240;2022-12-07T14:56:50;4.00;99.90
6518;DHT22;3292;48.944;9.240;2022-12-07T14:59:31;4.00;99.90
6518;DHT22;3292;48.944;9.240;2022-12-07T15:02:02;4.00;99.90
6518;DHT22;3292;48.944;9.240;2022-12-07T15:04:36;3.90;99.90
6518;DHT22;3292;48.944;9.240;2022-12-07T15:07:18;3.90;99.90
6518;DHT22;3292;48.944;9.240;2022-12-07T15:09:49;3.80;99.90
6518;DHT22;3292;48.944;9.240;2022-12-07T15:12:19;3.80;99.90
6518;DHT22;3292;48.944;9.240;2022-12-07T15:14:50;3.80;99.90
6518;DHT22;3292;48.944;9.240;2022-12-07T15:17:21;3.70;99.90
6518;DHT22;3292;48.944;9.240;2022-12-07T15:19:54;3.70;99.90
6518;DHT22;3292;48.944;9.240;2022-12-07T15:22:25;3.70;99.90
6518;DHT22;3292;48.944;9.240;2022-12-07T15:24:56;3.70;99.90
6518;DHT22;3292;48.944;9.240;2022-12-07T15:27:31;3.70;99.90
6518;DHT22;3292;48.944;9.240;2022-12-07T15:30:02;3.70;99.90
6518;DHT22;3292;48.944;9.240;2022-12-07T15:32:33;3.70;99.90
6518;DHT22;3292;48.944;9.240;2022-12-07T15:35:07;3.60;99.90
6518;DHT22;3292;48.944;9.240;2022-12-07T15:37:38;3.60;99.90
6518;DHT22;3292;48.944;9.240;2022-12-07T15:40:08;3.50;99.90
6518;DHT22;3292;48.944;9.240;2022-12-07T15:42:38;3.50;99.90
6518;DHT22;3292;48.944;9.240;2022-12-07T15:45:08;3.50;99.90
6518;DHT22;3292;48.944;9.240;2022-12-07T15:47:38;3.50;99.90
6518;DHT22;3292;48.944;9.240;2022-12-07T15:50:12;3.50;99.90
6518;DHT22;3292;48.944;9.240;2022-12-07T15:52:42;3.40;99.90
6518;DHT22;3292;48.944;9.240;2022-12-07T15:55:11;3.40;99.90
6518;DHT22;3292;48.944;9.240;2022-12-07T15:57:40;3.40;99.90
6518;DHT22;3292;48.944;9.240;2022-12-07T16:00:12;3.40;99.90
6518;DHT22;3292;48.944;9.240;2022-12-07T16:02:40;3.40;99.90
6518;DHT22;3292;48.944;9.240;2022-12-07T16:05:12;3.40;99.90
6518;DHT22;3292;48.944;9.240;2022-12-07T16:07:41;3.40;99.90
6518;DHT22;3292;48.944;9.240;2022-12-07T16:10:15;3.40;99.90
6518;DHT22;3292;48.944;9.240;2022-12-07T16:12:45;3.40;99.90
6518;DHT22;3292;48.944;9.240;2022-12-07T16:15:14;3.40;99.90
6518;DHT22;3292;48.944;9.240;2022-12-07T16:17:44;3.40;99.90
6518;DHT22;3292;48.944;9.240;2022-12-07T16:20:15;3.30;99.90
6518;DHT22;3292;48.944;9.240;2022-12-07T16:22:43;3.30;99.90
6518;DHT22;3292;48.944;9.240;2022-12-07T16:25:10;3.30;99.90
6518;DHT22;3292;48.944;9.240;2022-12-07T16:27:37;3.30;99.90
6518;DHT22;3292;48.944;9.240;2022-12-07T16:30:06;3.30;99.90
6518;DHT22;3292;48.944;9.240;2022-12-07T16:32:34;3.20;99.90
6518;DHT22;3292;48.944;9.240;2022-12-07T16:35:01;3.30;99.90
6518;DHT22;3292;48.944;9.240;2022-12-07T16:37:29;3.30;99.90
6518;DHT22;3292;48.944;9.240;2022-12-07T16:39:56;3.20;99.90
6518;DHT22;3292;48.944;9.240;2022-12-07T16:42:23;3.30;99.90
6518;DHT22;3292;48.944;9.240;2022-12-07T16:44:49;3.20;99.90
6518;DHT22;3292;48.944;9.240;2022-12-07T16:47:16;3.20;99.90
6518;DHT22;3292;48.944;9.240;2022-12-07T16:49:43;3.20;99.90
6518;DHT22;3292;48.944;9.240;2022-12-07T16:52:12;3.20;99.90
6518;DHT22;3292;48.944;9.240;2022-12-07T16:54:41;3.20;99.90
6518;DHT22;3292;48.944;9.240;2022-12-07T16:57:11;3.20;99.90
6518;DHT22;3292;48.944;9.240;2022-12-07T16:59:38;3.20;99.90
6518;DHT22;3292;48.944;9.240;2022-12-07T17:02:05;3.20;99.90
6518;DHT22;3292;48.944;9.240;2022-12-07T17:04:33;3.20;99.90